createdAt,value
2022-12-27T00:00:14.088Z,7.80
2022-12-27T00:02:43.941Z,7.70
2022-12-27T00:05:12.956Z,7.80
2022-12-27T00:07:41.146Z,7.90
2022-12-27T00:10:11.265Z,8.00
2022-12-27T00:12:39.878Z,8.00
2022-12-27T00:15:08.893Z,8.10
2022-12-27T00:17:44.586Z,8.10
2022-12-27T00:20:13.201Z,8.10
2022-12-27T00:22:41.662Z,8.10
2022-12-27T00:25:10.993Z,8.10
2022-12-27T00:27:39.885Z,8.10
2022-12-27T00:30:08.893Z,8.00
2022-12-27T00:32:37.177Z,8.30
2022-12-27T00:35:07.707Z,8.10
2022-12-27T00:37:35.930Z,8.10
2022-12-27T00:40:05.007Z,8.20
2022-12-27T00:42:33.159Z,8.20
2022-12-27T00:45:01.615Z,8.20
2022-12-27T00:47:29.766Z,8.20
2022-12-27T00:49:58.231Z,8.10
2022-12-27T00:52:27.753Z,8.10
2022-12-27T00:54:55.984Z,8.10
2022-12-27T00:57:24.040Z,8.20
2022-12-27T00:59:52.504Z,8.10
2022-12-27T01:02:20.928Z,8.10
2022-12-27T01:04:49.285Z,8.00
2022-12-27T01:07:18.290Z,8.00
2022-12-27T01:09:48.076Z,8.00
2022-12-27T01:12:16.380Z,7.90
2022-12-27T01:14:45.590Z,7.80
2022-12-27T01:17:13.780Z,7.70
2022-12-27T01:19:42.290Z,7.60
2022-12-27T01:22:10.456Z,7.60
2022-12-27T01:24:38.648Z,7.60
2022-12-27T01:27:08.172Z,7.50
2022-12-27T01:29:36.237Z,7.50
2022-12-27T01:32:04.492Z,7.40
2022-12-27T01:34:32.716Z,7.80
2022-12-27T01:37:00.837Z,7.40
2022-12-27T01:39:29.036Z,7.30
2022-12-27T01:42:14.508Z,7.40
2022-12-27T01:44:59.346Z,7.30
2022-12-27T01:47:37.274Z,7.30
2022-12-27T01:50:13.682Z,7.20
2022-12-27T01:52:47.892Z,7.30
2022-12-27T01:55:23.004Z,7.20
2022-12-27T01:57:53.329Z,7.20
2022-12-27T02:00:23.073Z,7.20
2022-12-27T02:02:52.284Z,7.10
2022-12-27T02:05:23.155Z,7.10
2022-12-27T02:08:05.414Z,7.00
2022-12-27T02:10:34.745Z,7.00
2022-12-27T02:13:05.635Z,6.90
2022-12-27T02:15:35.917Z,6.90
2022-12-27T02:18:04.415Z,6.90
2022-12-27T02:20:55.969Z,6.80
2022-12-27T02:24:05.329Z,6.70
2022-12-27T02:26:58.440Z,6.70
2022-12-27T02:30:00.804Z,6.70
2022-12-27T02:32:35.113Z,6.70
2022-12-27T02:35:16.266Z,6.70
2022-12-27T02:37:50.007Z,6.70
2022-12-27T02:40:39.677Z,6.60
2022-12-27T02:43:25.802Z,6.60
2022-12-27T02:46:21.682Z,6.60
2022-12-27T02:49:12.414Z,6.50
2022-12-27T02:52:15.202Z,6.50
2022-12-27T02:55:08.629Z,6.40
2022-12-27T02:57:46.756Z,6.40
2022-12-27T03:00:35.785Z,6.30
2022-12-27T03:03:44.487Z,6.30
2022-12-27T03:06:43.657Z,6.30
2022-12-27T03:09:50.664Z,6.30
2022-12-27T03:12:45.173Z,6.10
2022-12-27T03:15:47.532Z,6.10
2022-12-27T03:18:22.674Z,6.20
2022-12-27T03:21:12.240Z,6.30
2022-12-27T03:23:59.875Z,6.30
2022-12-27T03:26:30.740Z,6.40
2022-12-27T03:29:18.345Z,6.50
2022-12-27T03:32:09.797Z,6.50
2022-12-27T03:34:41.967Z,6.50
2022-12-27T03:37:32.737Z,6.50
2022-12-27T03:40:07.611Z,6.40
2022-12-27T03:43:00.559Z,6.40
2022-12-27T03:45:48.170Z,6.50
2022-12-27T03:48:21.444Z,6.40
2022-12-27T03:50:54.673Z,6.40
2022-12-27T03:53:31.003Z,6.30
2022-12-27T03:55:59.556Z,6.20
2022-12-27T03:58:27.894Z,6.10
2022-12-27T04:00:56.085Z,6.00
2022-12-27T04:03:24.530Z,6.00
2022-12-27T04:05:52.823Z,5.90
2022-12-27T04:08:38.627Z,5.80
2022-12-27T04:11:26.059Z,5.60
2022-12-27T04:14:12.068Z,5.50
2022-12-27T04:16:59.725Z,5.30
2022-12-27T04:19:45.190Z,5.20
2022-12-27T04:22:31.906Z,5.10
2022-12-27T04:25:17.407Z,5.10
2022-12-27T04:28:04.484Z,5.10
2022-12-27T04:30:52.047Z,5.10
2022-12-27T04:33:39.108Z,5.20
2022-12-27T05:00:37.016Z,5.20
2022-12-27T05:03:08.318Z,5.20
2022-12-27T05:05:38.016Z,5.20
2022-12-27T05:08:24.972Z,5.30
2022-12-27T05:11:11.034Z,5.20
2022-12-27T05:13:56.753Z,5.30
2022-12-27T05:16:26.295Z,5.30
2022-12-27T05:18:54.598Z,5.30
2022-12-27T05:21:22.786Z,5.20
2022-12-27T05:24:08.281Z,5.20
2022-12-27T05:26:38.344Z,5.10
2022-12-27T05:29:08.115Z,5.10
2022-12-27T05:31:37.905Z,5.10
2022-12-27T05:34:06.958Z,5.20
2022-12-27T05:36:35.476Z,5.20
2022-12-27T05:39:03.789Z,5.20
2022-12-27T05:41:31.952Z,5.20
2022-12-27T05:44:06.591Z,5.20
2022-12-27T05:46:36.091Z,5.20
2022-12-27T05:49:05.892Z,5.20
2022-12-27T05:51:33.968Z,5.20
2022-12-27T05:54:02.186Z,5.20
2022-12-27T05:56:30.943Z,5.10
2022-12-27T05:58:59.037Z,5.10
2022-12-27T06:01:27.128Z,5.20
2022-12-27T06:03:55.438Z,5.20
2022-12-27T06:06:24.996Z,5.20
2022-12-27T06:08:53.186Z,5.20
2022-12-27T06:11:21.882Z,5.20
2022-12-27T06:13:51.954Z,5.20
2022-12-27T06:16:21.646Z,5.10
2022-12-27T06:18:49.838Z,5.10
2022-12-27T06:21:20.993Z,5.10
2022-12-27T06:23:51.503Z,5.10
2022-12-27T06:26:21.965Z,5.10
2022-12-27T06:28:50.754Z,5.20
2022-12-27T06:31:19.763Z,5.10
2022-12-27T06:33:48.851Z,5.10
2022-12-27T06:36:20.436Z,5.10
2022-12-27T06:38:50.335Z,5.10
2022-12-27T06:41:19.855Z,5.10
2022-12-27T06:43:49.282Z,5.10
2022-12-27T06:46:19.120Z,5.10
2022-12-27T06:48:48.240Z,5.20
2022-12-27T06:51:19.259Z,5.10
2022-12-27T06:53:47.460Z,5.10
2022-12-27T06:56:19.145Z,5.10
2022-12-27T06:58:48.363Z,5.20
2022-12-27T07:01:18.793Z,5.10
2022-12-27T07:03:50.232Z,5.10
2022-12-27T07:06:18.719Z,5.20
2022-12-27T07:08:47.254Z,5.30
2022-12-27T07:11:17.578Z,5.30
2022-12-27T07:13:47.266Z,5.30
2022-12-27T07:16:17.008Z,5.30
2022-12-27T07:18:45.935Z,5.40
2022-12-27T07:21:16.072Z,5.40
2022-12-27T07:23:45.618Z,5.40
2022-12-27T07:26:15.689Z,5.40
2022-12-27T07:28:45.445Z,5.40
2022-12-27T07:31:16.264Z,5.50
2022-12-27T07:33:44.905Z,5.50
2022-12-27T07:36:18.321Z,5.50
2022-12-27T07:38:47.000Z,5.60
2022-12-27T07:41:16.160Z,5.60
2022-12-27T07:43:46.136Z,5.60
2022-12-27T07:46:16.534Z,5.60
2022-12-27T07:48:45.473Z,5.70
2022-12-27T07:51:14.091Z,5.70
2022-12-27T07:53:42.148Z,5.80
2022-12-27T07:56:12.618Z,5.70
2022-12-27T07:58:42.939Z,5.80
2022-12-27T08:01:16.047Z,5.80
2022-12-27T08:03:44.724Z,5.80
2022-12-27T08:06:23.074Z,5.70
2022-12-27T08:08:53.439Z,5.70
2022-12-27T08:11:21.568Z,5.70
2022-12-27T08:13:50.932Z,5.80
2022-12-27T08:16:23.480Z,5.80
2022-12-27T08:18:53.060Z,5.90
2022-12-27T08:21:21.389Z,6.00
2022-12-27T08:23:49.552Z,6.00
2022-12-27T08:26:17.650Z,6.20
2022-12-27T08:28:45.840Z,6.30
2022-12-27T08:31:14.564Z,6.30
2022-12-27T08:33:44.294Z,6.40
2022-12-27T08:39:02.267Z,6.60
2022-12-27T08:41:30.450Z,6.60
2022-12-27T08:43:58.497Z,6.60
2022-12-27T08:46:26.695Z,6.50
2022-12-27T08:48:56.228Z,6.60
2022-12-27T08:51:34.392Z,6.60
2022-12-27T08:54:08.505Z,6.50
2022-12-27T08:56:37.746Z,6.60
2022-12-27T08:59:06.317Z,6.60
2022-12-27T09:01:34.528Z,6.60
2022-12-27T09:04:04.619Z,6.70
2022-12-27T09:06:32.794Z,6.80
2022-12-27T09:09:01.559Z,6.80
2022-12-27T09:11:31.619Z,6.80
2022-12-27T09:14:02.075Z,6.90
2022-12-27T09:16:31.163Z,6.90
2022-12-27T09:19:00.557Z,6.90
2022-12-27T09:21:32.070Z,6.90
2022-12-27T09:24:00.423Z,6.90
2022-12-27T09:26:30.989Z,6.90
2022-12-27T09:29:00.122Z,6.80
2022-12-27T09:31:29.182Z,6.70
2022-12-27T09:33:58.096Z,6.70
2022-12-27T09:36:30.072Z,6.70
2022-12-27T09:38:59.848Z,6.80
2022-12-27T09:42:45.039Z,6.90
2022-12-27T09:44:40.174Z,6.90
2022-12-27T09:47:16.308Z,7.20
2022-12-27T09:49:47.419Z,7.20
2022-12-27T09:52:22.202Z,7.30
2022-12-27T09:55:04.843Z,7.50
2022-12-27T09:57:37.721Z,7.60
2022-12-27T10:00:12.305Z,7.60
2022-12-27T10:02:40.610Z,7.60
2022-12-27T10:05:20.906Z,7.60
2022-12-27T10:08:05.860Z,7.60
2022-12-27T10:10:45.337Z,7.60
2022-12-27T10:13:28.177Z,7.60
2022-12-27T10:16:10.695Z,7.70
2022-12-27T10:18:50.674Z,7.70
2022-12-27T10:21:22.722Z,7.80
2022-12-27T10:23:56.769Z,8.00
2022-12-27T10:26:25.228Z,8.20
2022-12-27T10:28:57.572Z,8.00
2022-12-27T10:31:27.623Z,8.00
2022-12-27T10:33:55.940Z,8.10
2022-12-27T10:36:26.953Z,8.30
2022-12-27T10:38:57.102Z,8.40
2022-12-27T10:41:36.033Z,8.50
2022-12-27T10:44:04.222Z,8.20
2022-12-27T10:46:34.001Z,8.10
2022-12-27T10:49:22.388Z,8.00
2022-12-27T10:51:52.493Z,8.20
2022-12-27T10:54:25.416Z,8.30
2022-12-27T10:56:54.174Z,8.50
2022-12-27T10:59:23.951Z,8.40
2022-12-27T11:02:16.238Z,8.60
2022-12-27T11:04:59.341Z,8.60
2022-12-27T11:07:31.411Z,8.50
2022-12-27T11:10:15.709Z,8.60
2022-12-27T11:12:57.241Z,8.90
2022-12-27T11:15:26.175Z,8.90
2022-12-27T11:17:57.523Z,9.10
2022-12-27T11:20:30.608Z,9.20
2022-12-27T11:23:01.832Z,9.00
2022-12-27T11:25:32.291Z,9.10
2022-12-27T11:28:04.989Z,9.40
2022-12-27T11:30:35.362Z,9.70
2022-12-27T11:33:07.071Z,9.90
2022-12-27T11:35:46.257Z,10.00
2022-12-27T11:38:24.145Z,9.60
2022-12-27T11:41:02.670Z,9.50
2022-12-27T11:43:37.194Z,9.30
2022-12-27T11:46:09.575Z,9.40
2022-12-27T11:48:42.438Z,9.30
2022-12-27T11:51:53.525Z,9.20
2022-12-27T11:55:02.542Z,9.50
2022-12-27T11:57:45.088Z,9.20
2022-12-27T12:00:19.700Z,9.00
2022-12-27T12:03:32.780Z,8.90
2022-12-27T12:06:13.873Z,8.90
2022-12-27T12:09:10.266Z,9.00
2022-12-27T12:11:55.070Z,9.10
2022-12-27T12:14:57.283Z,9.00
2022-12-27T12:17:48.096Z,9.00
2022-12-27T12:20:37.559Z,9.20
2022-12-27T12:23:13.427Z,9.20
2022-12-27T12:26:07.224Z,9.20
2022-12-27T12:29:19.384Z,9.00
2022-12-27T12:32:10.226Z,8.90
2022-12-27T12:34:52.072Z,8.80
2022-12-27T12:37:36.755Z,8.70
2022-12-27T12:40:33.899Z,8.70
2022-12-27T12:43:16.755Z,8.70
2022-12-27T12:46:01.366Z,8.70
2022-12-27T12:49:10.453Z,8.60
2022-12-27T12:52:01.559Z,8.50
2022-12-27T12:55:00.016Z,8.40
2022-12-27T12:57:42.601Z,8.30
2022-12-27T13:00:32.018Z,8.30
2022-12-27T13:03:31.601Z,8.40
2022-12-27T13:06:12.576Z,8.40
2022-12-27T13:08:46.419Z,8.50
2022-12-27T13:11:37.151Z,8.60
2022-12-27T13:14:38.309Z,8.50
2022-12-27T13:17:16.441Z,8.60
2022-12-27T13:20:10.493Z,8.60
2022-12-27T13:22:59.227Z,8.70
2022-12-27T13:25:40.498Z,8.70
2022-12-27T13:28:31.646Z,8.60
2022-12-27T13:31:04.920Z,8.50
2022-12-27T13:33:45.278Z,8.50
2022-12-27T13:36:28.159Z,8.60
2022-12-27T13:39:31.812Z,8.60
2022-12-27T13:42:20.488Z,8.60
2022-12-27T13:45:04.791Z,8.50
2022-12-27T13:48:07.001Z,8.60
2022-12-27T13:51:06.404Z,8.60
2022-12-27T13:54:06.391Z,8.50
2022-12-27T13:56:54.493Z,8.40
2022-12-27T13:59:54.085Z,8.30
2022-12-27T14:02:45.873Z,8.30
2022-12-27T14:05:45.756Z,8.20
2022-12-27T14:08:24.724Z,8.10
2022-12-27T14:11:00.830Z,8.10
2022-12-27T14:13:35.803Z,8.10
2022-12-27T14:16:23.753Z,7.80
2022-12-27T14:19:21.144Z,8.00
2022-12-27T14:22:23.717Z,7.90
2022-12-27T14:25:30.609Z,7.90
2022-12-27T14:28:24.440Z,7.90
2022-12-27T14:31:16.940Z,7.90
2022-12-27T14:34:16.363Z,7.90
2022-12-27T14:37:26.096Z,7.90
2022-12-27T14:40:34.879Z,7.90
2022-12-27T14:43:49.457Z,7.80
2022-12-27T14:46:53.792Z,7.80
2022-12-27T14:50:04.528Z,7.90
2022-12-27T14:53:09.326Z,7.80
2022-12-27T14:56:08.351Z,7.80
2022-12-27T14:59:00.329Z,7.70
2022-12-27T15:01:46.535Z,7.70
2022-12-27T15:04:44.651Z,7.60
2022-12-27T15:07:33.355Z,7.60
2022-12-27T15:10:09.080Z,7.50
2022-12-27T15:12:47.093Z,7.40
2022-12-27T15:15:24.735Z,7.40
2022-12-27T15:18:27.350Z,7.30
2022-12-27T15:21:13.841Z,7.30
2022-12-27T15:23:52.657Z,7.10
2022-12-27T15:26:28.727Z,7.00
2022-12-27T15:29:10.072Z,6.90
2022-12-27T15:31:50.275Z,6.80
2022-12-27T15:34:42.514Z,6.70
2022-12-27T15:37:59.218Z,6.60
2022-12-27T15:40:55.030Z,6.50
2022-12-27T15:43:37.148Z,6.40
2022-12-27T15:46:17.897Z,6.30
2022-12-27T15:49:02.616Z,6.20
2022-12-27T15:51:36.438Z,6.10
2022-12-27T15:54:28.463Z,6.10
2022-12-27T15:57:38.843Z,6.10
2022-12-27T16:00:17.485Z,6.00
2022-12-27T16:02:55.031Z,6.00
2022-12-27T16:05:52.355Z,6.00
2022-12-27T16:08:32.873Z,5.90
2022-12-27T16:11:02.801Z,5.90
2022-12-27T16:13:44.630Z,5.90
2022-12-27T16:16:57.668Z,5.80
2022-12-27T16:19:51.625Z,5.70
2022-12-27T16:22:27.594Z,5.70
2022-12-27T16:24:58.328Z,5.70
2022-12-27T16:27:32.810Z,5.60
2022-12-27T16:30:01.466Z,5.60
2022-12-27T16:32:31.821Z,5.50
2022-12-27T16:35:14.943Z,5.50
2022-12-27T16:37:46.130Z,5.40
2022-12-27T16:40:30.387Z,5.40
2022-12-27T16:43:33.169Z,5.40
2022-12-27T16:46:19.013Z,5.30
2022-12-27T16:49:03.117Z,5.30
2022-12-27T16:51:40.177Z,5.20
2022-12-27T16:54:24.787Z,5.20
2022-12-27T16:57:34.073Z,5.10
2022-12-27T17:00:05.510Z,5.00
2022-12-27T17:02:42.062Z,4.90
2022-12-27T17:05:35.263Z,4.90
2022-12-27T17:08:20.453Z,4.70
2022-12-27T17:11:25.906Z,4.70
2022-12-27T17:13:59.621Z,4.60
2022-12-27T17:16:30.059Z,4.60
2022-12-27T17:19:01.411Z,4.50
2022-12-27T17:21:32.776Z,4.40
2022-12-27T17:24:07.367Z,4.40
2022-12-27T17:27:10.422Z,4.30
2022-12-27T17:30:00.049Z,4.30
2022-12-27T17:32:58.451Z,4.20
2022-12-27T17:35:32.143Z,4.20
2022-12-27T17:38:16.273Z,4.20
2022-12-27T17:40:52.428Z,4.10
2022-12-27T17:43:49.135Z,4.10
2022-12-27T17:46:30.619Z,4.00
2022-12-27T17:48:59.978Z,3.80
2022-12-27T17:51:31.281Z,3.90
2022-12-27T17:54:17.256Z,3.90
2022-12-27T17:57:04.601Z,3.90
2022-12-27T17:59:34.912Z,3.80
2022-12-27T18:02:13.389Z,3.80
2022-12-27T18:04:49.100Z,3.70
2022-12-27T18:07:24.887Z,3.60
2022-12-27T18:09:56.119Z,3.60
2022-12-27T18:12:27.037Z,3.50
2022-12-27T18:14:59.893Z,3.40
2022-12-27T18:17:34.007Z,3.30
2022-12-27T18:20:20.995Z,3.20
2022-12-27T18:22:49.157Z,3.20
2022-12-27T18:25:24.705Z,3.10
2022-12-27T18:28:01.079Z,2.90
2022-12-27T18:30:33.791Z,2.90
2022-12-27T18:33:06.725Z,2.80
2022-12-27T18:35:36.235Z,2.70
2022-12-27T18:38:07.634Z,2.60
2022-12-27T18:40:36.284Z,2.60
2022-12-27T18:43:04.545Z,2.50
2022-12-27T18:45:34.804Z,2.40
2022-12-27T18:48:12.159Z,2.40
2022-12-27T18:50:50.074Z,2.40
2022-12-27T18:53:24.747Z,2.40
2022-12-27T18:56:01.058Z,2.30
2022-12-27T18:58:29.598Z,2.20
2022-12-27T19:01:02.348Z,2.20
2022-12-27T19:03:38.249Z,2.20
2022-12-27T19:06:11.797Z,2.20
2022-12-27T19:08:46.118Z,2.20
2022-12-27T19:11:22.460Z,2.20
2022-12-27T19:13:53.488Z,2.10
2022-12-27T19:16:31.491Z,2.10
2022-12-27T19:19:08.541Z,2.00
2022-12-27T19:21:39.116Z,2.00
2022-12-27T19:24:30.441Z,2.00
2022-12-27T19:29:32.005Z,1.90
2022-12-27T19:32:05.881Z,1.80
2022-12-27T19:34:47.239Z,1.80
2022-12-27T19:37:18.109Z,1.80
2022-12-27T19:39:48.456Z,1.80
2022-12-27T19:42:19.502Z,1.90
2022-12-27T19:44:47.749Z,1.80
2022-12-27T19:47:18.900Z,1.80
2022-12-27T19:49:50.471Z,1.80
2022-12-27T19:52:20.815Z,1.70
2022-12-27T19:54:50.840Z,1.60
2022-12-27T19:57:19.982Z,1.60
2022-12-27T19:59:53.384Z,1.50
2022-12-27T20:02:25.455Z,1.60
2022-12-27T20:04:55.192Z,1.80
2022-12-27T20:07:26.513Z,1.90
2022-12-27T20:09:54.717Z,1.90
2022-12-27T20:12:23.353Z,1.90
2022-12-27T20:14:51.584Z,1.90
2022-12-27T20:17:19.831Z,1.90
2022-12-27T20:19:48.009Z,1.80
2022-12-27T20:22:17.492Z,1.80
2022-12-27T20:24:47.176Z,1.80
2022-12-27T20:27:16.312Z,1.80
2022-12-27T20:29:44.539Z,1.80
2022-12-27T20:32:14.748Z,1.80
2022-12-27T20:34:42.951Z,1.80
2022-12-27T20:37:11.895Z,1.90
2022-12-27T20:39:41.528Z,2.00
2022-12-27T20:42:09.569Z,2.00
2022-12-27T20:44:40.126Z,2.00
2022-12-27T20:47:08.343Z,2.10
2022-12-27T20:49:38.606Z,2.10
2022-12-27T20:52:06.726Z,2.10
2022-12-27T20:54:34.836Z,2.10
2022-12-27T20:57:04.529Z,2.00
2022-12-27T20:59:34.838Z,1.90
2022-12-27T21:02:03.104Z,1.90
2022-12-27T21:04:31.271Z,1.80
2022-12-27T21:06:59.500Z,1.70
2022-12-27T21:09:27.726Z,1.60
2022-12-27T21:11:55.897Z,1.60
2022-12-27T21:14:25.594Z,1.50
2022-12-27T21:16:53.763Z,1.40
2022-12-27T21:19:21.829Z,1.40
2022-12-27T21:21:50.092Z,1.40
2022-12-27T21:24:18.266Z,1.40
2022-12-27T21:26:46.874Z,1.40
2022-12-27T21:29:16.334Z,1.30
2022-12-27T21:31:47.199Z,1.20
2022-12-27T21:34:16.306Z,1.20
2022-12-27T21:36:45.586Z,1.20
2022-12-27T21:39:13.794Z,1.20
2022-12-27T21:41:43.051Z,1.20
2022-12-27T21:54:10.615Z,1.20
2022-12-27T21:56:39.363Z,1.30
2022-12-27T21:59:10.976Z,1.30
2022-12-27T22:01:51.589Z,1.40
2022-12-27T22:04:22.761Z,1.40
2022-12-27T22:06:51.304Z,1.50
2022-12-27T22:09:20.064Z,1.40
2022-12-27T22:11:48.509Z,1.50
2022-12-27T22:14:16.830Z,1.40
2022-12-27T22:16:45.046Z,1.40
2022-12-27T22:19:14.986Z,1.40
2022-12-27T22:21:45.046Z,1.40
2022-12-27T22:24:19.303Z,1.40
2022-12-27T22:26:48.740Z,1.30
2022-12-27T22:29:17.807Z,1.20
2022-12-27T22:31:47.343Z,1.00
2022-12-27T22:34:15.562Z,0.90
2022-12-27T22:36:46.177Z,1.10
2022-12-27T22:39:14.636Z,1.00
2022-12-27T22:41:43.088Z,0.90
2022-12-27T22:44:13.894Z,1.00
2022-12-27T22:49:32.252Z,1.00
2022-12-27T22:52:01.821Z,0.90
2022-12-27T22:55:05.210Z,0.90
2022-12-27T22:57:19.240Z,0.80
2022-12-27T22:59:47.736Z,0.80
2022-12-27T23:02:17.250Z,0.80
2022-12-27T23:04:45.845Z,0.80
2022-12-27T23:07:20.116Z,0.80
2022-12-27T23:09:48.454Z,0.90
2022-12-27T23:12:16.889Z,0.90
2022-12-27T23:14:45.081Z,0.80
2022-12-27T23:17:22.468Z,0.90
2022-12-27T23:19:50.680Z,1.00
2022-12-27T23:22:20.254Z,1.00
2022-12-27T23:24:48.574Z,1.00
2022-12-27T23:27:18.014Z,0.90
2022-12-27T23:29:46.165Z,0.90
2022-12-27T23:32:14.424Z,0.80
2022-12-27T23:34:43.675Z,0.90
2022-12-27T23:37:14.740Z,0.90
2022-12-27T23:39:46.465Z,0.80
2022-12-27T23:42:15.817Z,0.80
2022-12-27T23:44:44.142Z,0.90
2022-12-27T23:47:12.656Z,0.90
2022-12-27T23:49:40.901Z,1.00
2022-12-27T23:52:09.231Z,1.10
2022-12-27T23:54:37.626Z,1.20
2022-12-27T23:57:20.524Z,1.20
2022-12-27T23:59:51.549Z,1.30
